Time;durP1;ratioP1;P1;durP2;ratioP2;P2;SDS_P1;SDS_P2;PMS_P1;PMS_P2;Temp;Humidity;BMP_temperature;BMP_pressure;BME280_temperature;BME280_humidity;BME280_pressure;Samples;Min_cycle;Max_cycle;Signal;HPM_P1;HPM_P2
2023/07/12 00:04:44;;;;;;;9.07;8.50;;;21.40;99.90;;;;;;2614718;54;20403;-78
2023/07/12 00:10:36;;;;;;;7.70;7.10;;;21.00;99.90;;;;;;2615365;39;20634;-77
2023/07/12 00:16:27;;;;;;;7.33;6.83;;;20.70;99.90;;;;;;2613977;54;20416;-77
2023/07/12 00:22:16;;;;;;;6.47;6.07;;;20.40;99.90;;;;;;2614426;54;20415;-76
2023/07/12 00:34:39;;;;;;;7.43;6.93;;;20.20;99.90;;;;;;2613745;54;20942;-76
2023/07/12 00:40:48;;;;;;;6.50;6.00;;;20.20;99.90;;;;;;2614486;54;20123;-77
2023/07/12 00:50:00;;;;;;;7.03;6.63;;;20.20;99.90;;;;;;2616720;54;20379;-80
2023/07/12 00:56:03;;;;;;;7.77;7.27;;;20.00;99.90;;;;;;2618747;54;20415;-79
2023/07/12 01:01:56;;;;;;;7.63;7.23;;;20.00;99.90;;;;;;2616428;54;20536;-77
2023/07/12 01:07:44;;;;;;;6.57;5.53;;;20.00;99.90;;;;;;2615064;54;20400;-77
2023/07/12 01:13:33;;;;;;;6.30;6.00;;;20.00;99.90;;;;;;2615798;54;20383;-77
2023/07/12 01:19:21;;;;;;;7.20;6.70;;;20.00;99.90;;;;;;2615656;39;20900;-76
2023/07/12 01:22:25;;;;;;;7.60;6.90;;;20.00;99.90;;;;;;2612729;39;20479;-75
2023/07/12 01:24:50;;;;;;;7.03;6.67;;;20.00;99.90;;;;;;2613851;39;20597;-77
2023/07/12 01:30:40;;;;;;;7.60;7.30;;;19.90;99.90;;;;;;2613720;54;20568;-76
2023/07/12 01:36:29;;;;;;;7.00;6.70;;;19.80;99.90;;;;;;2617080;54;20432;-76
2023/07/12 01:42:18;;;;;;;7.63;7.13;;;19.90;99.90;;;;;;2616758;54;20386;-75
2023/07/12 01:45:03;;;;;;;7.43;7.03;;;19.80;99.90;;;;;;2617314;39;20803;-77
2023/07/12 01:47:30;;;;;;;8.33;7.80;;;19.80;99.90;;;;;;2614719;47;20415;-77
2023/07/12 01:53:18;;;;;;;8.00;7.60;;;19.80;99.90;;;;;;2616670;39;20849;-78
2023/07/12 01:59:05;;;;;;;7.80;7.30;;;20.00;99.90;;;;;;2614275;54;20150;-78
2023/07/12 02:04:53;;;;;;;7.77;7.27;;;20.00;99.90;;;;;;2616047;54;20937;-77
2023/07/12 02:10:41;;;;;;;8.40;7.90;;;20.10;99.90;;;;;;2613675;54;20130;-77
2023/07/12 02:16:28;;;;;;;8.27;7.67;;;20.10;99.90;;;;;;2615019;54;20139;-77
2023/07/12 02:22:16;;;;;;;7.60;7.00;;;20.00;99.90;;;;;;2613459;54;20226;-77
2023/07/12 02:28:05;;;;;;;8.10;7.50;;;20.00;99.90;;;;;;2615291;54;20168;-76
2023/07/12 02:33:52;;;;;;;7.90;7.50;;;20.00;99.90;;;;;;2615503;54;20133;-76
2023/07/12 02:39:40;;;;;;;6.90;6.50;;;20.00;99.90;;;;;;2614234;54;20123;-77
2023/07/12 02:49:30;;;;;;;6.67;6.00;;;19.40;99.90;;;;;;2615850;54;20590;-77
2023/07/12 02:55:18;;;;;;;5.37;4.97;;;19.00;99.90;;;;;;2616444;54;20402;-78
2023/07/12 03:01:06;;;;;;;6.03;4.63;;;18.70;99.90;;;;;;2616381;54;20218;-80
2023/07/12 03:06:54;;;;;;;4.87;4.40;;;18.20;99.90;;;;;;2618585;54;20145;-82
2023/07/12 03:12:41;;;;;;;5.40;4.70;;;18.00;99.90;;;;;;2618663;39;20549;-81
2023/07/12 03:18:29;;;;;;;5.53;4.93;;;17.90;99.90;;;;;;2619565;54;20168;-82
2023/07/12 03:24:17;;;;;;;5.40;3.90;;;17.90;99.90;;;;;;2621920;54;20255;-85
2023/07/12 03:30:06;;;;;;;7.30;3.93;;;17.70;99.90;;;;;;2625743;54;20152;-80
2023/07/12 03:35:54;;;;;;;5.83;3.20;;;17.40;99.90;;;;;;2616033;54;20391;-81
2023/07/12 03:41:41;;;;;;;6.03;4.70;;;17.40;99.90;;;;;;2617534;54;20394;-83
2023/07/12 03:45:03;;;;;;;8.20;4.60;;;17.30;99.90;;;;;;2617489;47;20395;-83
2023/07/12 03:47:28;;;;;;;10.33;4.40;;;17.20;99.90;;;;;;2618023;54;20143;-84
2023/07/12 03:53:17;;;;;;;5.87;4.00;;;17.20;99.90;;;;;;2617269;39;20567;-83
2023/07/12 03:59:06;;;;;;;9.23;4.40;;;17.10;99.90;;;;;;2617305;54;20395;-84
2023/07/12 04:04:53;;;;;;;9.57;4.13;;;17.10;99.90;;;;;;2615030;54;20405;-80
2023/07/12 04:10:41;;;;;;;5.93;5.33;;;17.10;99.90;;;;;;2617303;54;20195;-80
2023/07/12 04:16:30;;;;;;;10.77;5.33;;;17.20;99.90;;;;;;2616080;54;20322;-80
2023/07/12 04:22:17;;;;;;;8.03;6.10;;;17.20;99.90;;;;;;2615981;54;20403;-80
2023/07/12 04:28:05;;;;;;;5.63;5.03;;;17.20;99.90;;;;;;2616974;54;20207;-78
2023/07/12 04:33:53;;;;;;;8.00;4.87;;;17.20;99.90;;;;;;2616586;54;20218;-81
2023/07/12 04:39:41;;;;;;;4.77;4.20;;;17.20;99.90;;;;;;2615186;54;20205;-82
2023/07/12 04:49:28;;;;;;;4.83;3.87;;;17.10;99.90;;;;;;2619208;54;21085;-87
2023/07/12 04:55:25;;;;;;;4.90;3.70;;;17.10;99.90;;;;;;2616997;54;20395;-77
2023/07/12 05:01:13;;;;;;;5.90;3.87;;;17.10;99.90;;;;;;2616916;54;20383;-78
2023/07/12 05:07:01;;;;;;;4.53;2.87;;;17.00;99.90;;;;;;2617121;54;20134;-78
2023/07/12 05:12:49;;;;;;;4.37;3.97;;;17.40;99.90;;;;;;2616298;54;20399;-78
2023/07/12 05:18:37;;;;;;;5.23;3.80;;;17.90;99.90;;;;;;2616817;54;20415;-83
2023/07/12 05:24:25;;;;;;;5.00;4.50;;;18.20;99.90;;;;;;2615722;54;20134;-82
2023/07/12 05:30:13;;;;;;;4.17;3.17;;;17.90;99.90;;;;;;2613455;54;20649;-80
2023/07/12 05:36:03;;;;;;;3.60;2.83;;;18.00;99.90;;;;;;2613366;54;20399;-79
2023/07/12 05:41:51;;;;;;;3.00;2.73;;;17.90;99.90;;;;;;2617145;54;20398;-84
2023/07/12 05:47:42;;;;;;;3.00;2.80;;;18.00;99.90;;;;;;2614712;54;20390;-82
2023/07/12 05:53:30;;;;;;;3.37;3.00;;;17.80;99.90;;;;;;2617433;54;20408;-86
2023/07/12 05:59:20;;;;;;;3.60;2.20;;;17.60;99.90;;;;;;2616524;54;20156;-85
2023/07/12 06:05:08;;;;;;;5.93;2.10;;;17.50;99.90;;;;;;2615722;54;20524;-86
2023/07/12 06:10:56;;;;;;;2.73;2.20;;;17.50;99.90;;;;;;2615711;54;20398;-85
2023/07/12 06:16:44;;;;;;;2.83;2.03;;;17.60;99.90;;;;;;2616598;54;20134;-84
2023/07/12 06:22:32;;;;;;;4.00;2.50;;;17.60;99.90;;;;;;2614391;54;20391;-82
2023/07/12 06:28:19;;;;;;;4.50;2.30;;;17.50;99.90;;;;;;2613413;54;20313;-83
2023/07/12 06:34:09;;;;;;;4.77;3.57;;;17.50;99.90;;;;;;2616042;54;20151;-83
2023/07/12 06:39:56;;;;;;;4.77;4.10;;;17.50;99.90;;;;;;2616508;54;20398;-77
2023/07/12 06:45:45;;;;;;;5.20;4.60;;;17.60;99.90;;;;;;2616219;54;20167;-76
2023/07/12 06:54:55;;;;;;;5.07;3.67;;;18.20;99.90;;;;;;2615339;54;20434;-78
2023/07/12 07:00:44;;;;;;;4.33;3.90;;;19.00;99.90;;;;;;2614071;54;20174;-83
2023/07/12 07:06:32;;;;;;;6.53;4.57;;;19.00;99.90;;;;;;2615235;54;20395;-82
2023/07/12 07:12:20;;;;;;;4.97;4.50;;;18.80;99.90;;;;;;2615033;54;20435;-83
2023/07/12 07:18:10;;;;;;;5.43;5.03;;;19.30;99.90;;;;;;2616423;54;20118;-83
2023/07/12 07:21:13;;;;;;;9.20;5.50;;;19.40;99.90;;;;;;2615382;54;20439;-82
2023/07/12 07:23:39;;;;;;;6.57;5.13;;;20.20;99.90;;;;;;2614404;54;20918;-82
2023/07/12 07:29:28;;;;;;;6.73;6.20;;;19.90;99.90;;;;;;2612446;54;20415;-83
2023/07/12 07:35:16;;;;;;;6.50;6.10;;;20.30;99.90;;;;;;2615575;54;20407;-82
2023/07/12 07:41:11;;;;;;;8.90;6.33;;;19.80;99.90;;;;;;2611754;54;20428;-79
2023/07/12 07:46:58;;;;;;;7.63;7.10;;;19.70;99.90;;;;;;2615180;54;22121;-79
2023/07/12 07:50:17;;;;;;;8.00;7.33;;;20.30;99.90;;;;;;2615841;54;20550;-76
2023/07/12 07:52:43;;;;;;;6.93;6.33;;;20.50;99.90;;;;;;2613755;54;20150;-77
2023/07/12 07:58:31;;;;;;;7.53;6.83;;;20.40;99.90;;;;;;2612168;54;20154;-84
2023/07/12 08:04:18;;;;;;;7.60;7.10;;;19.80;99.90;;;;;;2616219;54;20390;-84
2023/07/12 08:10:13;;;;;;;8.07;7.37;;;19.30;99.90;;;;;;2615321;54;20134;-84
2023/07/12 08:16:01;;;;;;;10.13;9.47;;;19.70;99.90;;;;;;2613111;54;20427;-76
2023/07/12 08:21:49;;;;;;;9.33;8.73;;;19.80;99.90;;;;;;2614174;54;20424;-76
2023/07/12 08:27:37;;;;;;;9.07;8.57;;;20.70;99.90;;;;;;2613266;54;20443;-76
2023/07/12 08:33:25;;;;;;;9.43;8.57;;;21.20;99.90;;;;;;2613654;54;20423;-76
2023/07/12 08:39:13;;;;;;;8.90;8.20;;;20.60;99.90;;;;;;2615873;39;20555;-84
2023/07/12 08:45:02;;;;;;;10.93;9.80;;;22.00;99.90;;;;;;2613447;46;20151;-83
2023/07/12 08:54:49;;;;;;;9.57;8.80;;;21.60;98.80;;;;;;2615239;54;20447;-84
2023/07/12 09:00:37;;;;;;;8.30;7.70;;;20.20;99.90;;;;;;2615268;54;20507;-85
2023/07/12 09:06:25;;;;;;;10.17;9.57;;;20.10;99.90;;;;;;2615989;54;20849;-82
2023/07/12 09:18:52;;;;;;;10.80;10.10;;;22.50;54.80;;;;;;2614697;39;20812;-82
2023/07/12 09:31:23;;;;;;;10.50;9.97;;;21.60;53.70;;;;;;2613843;54;20395;-78
2023/07/12 09:37:18;;;;;;;10.53;10.00;;;22.20;42.40;;;;;;2609769;54;20387;-78
2023/07/12 10:06:03;;;;;;;12.93;12.13;;;22.80;19.60;;;;;;2611176;54;20428;-75
2023/07/12 10:12:01;;;;;;;11.40;10.80;;;22.80;17.10;;;;;;2615575;54;20408;-83
2023/07/12 10:17:48;;;;;;;12.50;11.60;;;22.80;6.40;;;;;;2614160;54;20455;-81
2023/07/12 10:36:30;;;;;;;12.63;11.70;;;22.40;15.80;;;;;;2613942;54;20412;-82
2023/07/12 10:48:48;;;;;;;11.33;10.73;;;22.40;5.20;;;;;;2614979;54;20427;-81
2023/07/12 10:54:36;;;;;;;11.63;10.90;;;22.60;17.00;;;;;;2614270;54;20395;-81
2023/07/12 11:13:32;;;;;;;12.07;11.47;;;23.00;8.90;;;;;;2610995;54;20440;-81
2023/07/12 11:19:36;;;;;;;10.80;10.10;;;22.50;2.80;;;;;;2613238;54;20406;-80
2023/07/12 11:22:21;;;;;;;11.07;10.57;;;22.60;12.90;;;;;;2612480;54;20411;-81
2023/07/12 11:24:52;;;;;;;12.70;11.57;;;22.50;11.20;;;;;;2611207;54;20464;-81
2023/07/12 11:30:43;;;;;;;13.33;12.50;;;22.50;6.20;;;;;;2614350;54;21081;-80
2023/07/12 11:36:34;;;;;;;12.43;11.73;;;23.60;1.00;;;;;;2614728;54;20428;-82
2023/07/12 11:42:26;;;;;;;13.37;12.37;;;23.20;1.00;;;;;;2616307;39;20972;-81
2023/07/12 11:48:14;;;;;;;15.13;14.13;;;24.00;1.00;;;;;;2618780;54;20498;-82
2023/07/12 12:00:27;;;;;;;14.00;13.10;;;24.50;1.00;;;;;;2616729;54;20503;-81
2023/07/12 12:03:15;;;;;;;12.27;11.67;;;23.60;1.00;;;;;;2617584;54;20511;-79
2023/07/12 12:09:03;;;;;;;12.80;12.20;;;23.50;1.00;;;;;;2615472;54;20528;-79
2023/07/12 12:14:51;;;;;;;13.07;12.30;;;24.30;1.00;;;;;;2613907;54;20176;-77
2023/07/12 12:20:39;;;;;;;13.27;12.37;;;23.10;1.00;;;;;;2612987;54;20127;-77
2023/07/12 12:26:32;;;;;;;13.30;12.60;;;22.90;1.00;;;;;;2613373;54;20145;-74
2023/07/12 12:32:21;;;;;;;12.50;11.90;;;24.30;1.00;;;;;;2611686;54;20416;-74
2023/07/12 12:44:34;;;;;;;12.90;12.30;;;23.90;1.00;;;;;;2612410;54;20425;-76
2023/07/12 12:50:23;;;;;;;13.03;12.33;;;24.10;1.00;;;;;;2612414;54;20469;-75
2023/07/12 12:56:11;;;;;;;13.97;13.03;;;25.00;1.00;;;;;;2612082;54;20423;-74
2023/07/12 12:58:48;;;;;;;12.93;12.10;;;25.50;1.00;;;;;;2610394;54;20447;-74
2023/07/12 13:01:15;;;;;;;13.37;12.23;;;25.40;1.00;;;;;;2611849;31;20934;-74
2023/07/12 13:07:04;;;;;;;12.60;12.00;;;24.10;1.00;;;;;;2614934;54;20387;-80
2023/07/12 13:12:52;;;;;;;13.10;12.40;;;24.20;1.00;;;;;;2614887;54;20409;-82
2023/07/12 13:18:39;;;;;;;12.80;12.30;;;25.20;1.00;;;;;;2612709;54;20140;-73
2023/07/12 13:21:43;;;;;;;13.93;13.03;;;25.00;1.00;;;;;;2612160;51;20894;-76
2023/07/12 13:24:09;;;;;;;13.73;13.13;;;25.70;1.00;;;;;;2612819;54;20214;-75
2023/07/12 13:29:57;;;;;;;13.20;12.57;;;25.50;1.00;;;;;;2611401;39;20810;-74
2023/07/12 13:35:47;;;;;;;13.40;12.70;;;25.50;1.00;;;;;;2611256;54;20403;-75
2023/07/12 13:41:34;;;;;;;13.30;12.67;;;26.40;1.00;;;;;;2612918;54;20407;-74
2023/07/12 13:47:25;;;;;;;13.40;12.70;;;25.40;1.00;;;;;;2612350;39;20545;-75
2023/07/12 13:53:13;;;;;;;13.30;12.60;;;25.80;1.00;;;;;;2612319;54;20394;-75
2023/07/12 14:03:19;;;;;;;13.23;12.63;;;26.00;1.00;;;;;;2611782;54;20427;-74
2023/07/12 14:09:09;;;;;;;12.60;12.00;;;26.60;1.00;;;;;;2614494;54;20384;-83
2023/07/12 14:14:57;;;;;;;12.63;12.03;;;26.60;1.00;;;;;;2614411;54;20914;-84
2023/07/12 14:20:48;;;;;;;12.93;12.23;;;25.20;1.00;;;;;;2614212;54;20430;-83
2023/07/12 14:26:35;;;;;;;12.33;11.70;;;26.60;1.00;;;;;;2613634;54;20391;-82
2023/07/12 14:32:26;;;;;;;12.53;11.83;;;25.80;1.00;;;;;;2614110;54;20759;-82
2023/07/12 14:38:14;;;;;;;12.60;11.80;;;27.00;1.00;;;;;;2614870;54;20420;-83
2023/07/12 14:44:15;;;;;;;12.70;12.10;;;26.10;1.00;;;;;;2613556;54;20131;-75
2023/07/12 14:50:05;;;;;;;12.23;11.63;;;26.10;1.00;;;;;;2611990;54;20390;-76
2023/07/12 14:55:53;;;;;;;12.63;12.03;;;26.30;1.00;;;;;;2612111;54;20424;-74
2023/07/12 14:58:47;;;;;;;13.17;12.50;;;26.20;1.00;;;;;;2611122;54;20421;-75
2023/07/12 15:01:27;;;;;;;14.13;13.20;;;25.60;1.00;;;;;;2614668;39;20593;-75
2023/07/12 15:07:24;;;;;;;13.20;12.60;;;25.10;1.00;;;;;;2613923;54;20905;-75
2023/07/12 15:13:12;;;;;;;13.33;12.63;;;25.00;1.00;;;;;;2617022;54;20383;-83
2023/07/12 15:19:00;;;;;;;12.73;12.00;;;25.10;1.00;;;;;;2616715;54;20219;-81
2023/07/12 15:24:48;;;;;;;15.20;14.27;;;25.40;1.00;;;;;;2616343;39;20497;-81
2023/07/12 15:30:36;;;;;;;13.67;12.97;;;24.40;1.00;;;;;;2615034;54;20150;-80
2023/07/12 15:36:24;;;;;;;13.67;12.97;;;24.10;1.00;;;;;;2615738;54;20488;-81
2023/07/12 15:42:15;;;;;;;14.10;13.20;;;24.20;1.00;;;;;;2615065;54;20424;-82
2023/07/12 15:54:36;;;;;;;13.83;13.20;;;24.50;1.00;;;;;;2610913;54;21776;-79
2023/07/12 16:03:46;;;;;;;15.03;14.40;;;24.00;1.00;;;;;;2611706;54;20446;-76
2023/07/12 16:09:35;;;;;;;14.30;13.60;;;24.10;1.00;;;;;;2612820;54;20432;-75
2023/07/12 16:15:23;;;;;;;15.37;14.47;;;24.20;1.00;;;;;;2609312;39;20800;-76
2023/07/12 16:21:20;;;;;;;15.23;14.40;;;23.80;1.00;;;;;;2614686;54;20147;-75
2023/07/12 16:27:12;;;;;;;14.80;13.87;;;25.60;1.00;;;;;;2614593;54;20515;-75
2023/07/12 16:33:00;;;;;;;15.47;14.43;;;24.20;1.00;;;;;;2615182;39;20834;-75
2023/07/12 16:38:48;;;;;;;14.77;13.87;;;24.60;1.00;;;;;;2615218;54;20211;-73
2023/07/12 16:44:36;;;;;;;15.87;14.97;;;24.80;1.00;;;;;;2614341;39;20526;-76
2023/07/12 16:50:23;;;;;;;15.00;14.30;;;24.10;1.00;;;;;;2614932;54;20133;-75
2023/07/12 16:56:16;;;;;;;15.20;14.33;;;24.00;1.00;;;;;;2615050;39;20504;-74
2023/07/12 17:05:26;;;;;;;15.00;14.20;;;24.10;1.00;;;;;;2614386;54;20403;-75
2023/07/12 17:11:18;;;;;;;16.50;15.60;;;23.80;1.00;;;;;;2614678;54;20214;-75
2023/07/12 17:17:09;;;;;;;15.00;13.93;;;23.90;1.00;;;;;;2614301;54;20399;-75
2023/07/12 17:22:57;;;;;;;15.83;14.73;;;24.70;1.00;;;;;;2616528;54;20997;-80
2023/07/12 17:28:47;;;;;;;16.63;15.63;;;24.30;1.00;;;;;;2614491;54;20150;-80
2023/07/12 17:34:36;;;;;;;22.93;21.30;;;24.10;1.00;;;;;;2613941;54;20395;-79
2023/07/12 17:40:24;;;;;;;16.20;15.00;;;23.90;1.00;;;;;;2616417;54;20391;-79
2023/07/12 17:46:13;;;;;;;15.97;14.97;;;23.20;1.00;;;;;;2615958;54;20412;-78
2023/07/12 17:52:01;;;;;;;15.90;15.00;;;23.20;1.00;;;;;;2612696;54;20387;-79
2023/07/12 17:57:49;;;;;;;15.43;14.53;;;22.80;1.00;;;;;;2613047;54;20125;-78
2023/07/12 18:00:48;;;;;;;16.33;15.63;;;22.70;1.00;;;;;;2614979;54;20420;-78
2023/07/12 18:09:30;;;;;;;15.90;14.90;;;22.50;1.00;;;;;;2612471;54;21019;-79
2023/07/12 18:15:24;;;;;;;17.90;16.60;;;22.30;1.00;;;;;;2613225;54;20170;-79
2023/07/12 18:21:25;;;;;;;15.30;14.50;;;22.30;1.00;;;;;;2613431;54;20391;-78
2023/07/12 18:27:17;;;;;;;16.60;15.70;;;22.00;1.00;;;;;;2614814;54;20438;-78
2023/07/12 18:33:16;;;;;;;17.27;16.07;;;22.00;1.00;;;;;;2614169;54;21433;-75
2023/07/12 18:42:30;;;;;;;15.87;15.17;;;21.70;1.00;;;;;;2614977;54;20465;-75
2023/07/12 18:48:18;;;;;;;15.50;14.80;;;21.80;1.00;;;;;;2613373;54;20383;-76
2023/07/12 18:54:05;;;;;;;15.30;14.50;;;21.70;1.00;;;;;;2610592;54;20399;-76
2023/07/12 18:59:53;;;;;;;16.20;15.30;;;21.70;1.00;;;;;;2612832;46;20681;-75
2023/07/12 19:05:41;;;;;;;15.87;14.77;;;21.70;1.00;;;;;;2613036;54;20130;-75
2023/07/12 19:11:35;;;;;;;15.07;14.27;;;21.40;1.00;;;;;;2614583;54;20122;-75
2023/07/12 19:17:23;;;;;;;15.87;15.03;;;21.20;1.00;;;;;;2616816;54;20511;-75
2023/07/12 19:23:14;;;;;;;14.90;13.80;;;21.20;1.00;;;;;;2615404;54;20658;-74
2023/07/12 19:29:02;;;;;;;15.47;14.67;;;21.00;1.00;;;;;;2616986;54;20436;-75
2023/07/12 19:34:51;;;;;;;14.83;14.03;;;21.00;1.00;;;;;;2616511;54;20122;-80
2023/07/12 19:40:39;;;;;;;15.00;14.30;;;20.80;1.00;;;;;;2615847;54;20407;-80
2023/07/12 19:46:27;;;;;;;15.50;14.70;;;20.60;1.60;;;;;;2616023;54;20134;-79
2023/07/12 19:52:17;;;;;;;14.67;13.90;;;20.50;6.30;;;;;;2616676;39;20487;-81
2023/07/12 19:58:04;;;;;;;15.10;14.20;;;20.30;9.70;;;;;;2615620;54;20395;-76
2023/07/12 20:00:48;;;;;;;15.47;14.40;;;20.20;12.70;;;;;;2614693;54;20527;-75
2023/07/12 20:03:14;;;;;;;14.90;14.20;;;20.20;14.10;;;;;;2614755;54;20143;-79
2023/07/12 20:09:02;;;;;;;14.43;13.63;;;20.00;20.90;;;;;;2616014;54;20419;-79
2023/07/12 20:14:50;;;;;;;15.80;14.90;;;19.90;23.90;;;;;;2615212;31;20908;-79
2023/07/12 20:20:38;;;;;;;15.07;14.07;;;19.80;28.50;;;;;;2613745;54;20140;-79
2023/07/12 20:26:26;;;;;;;15.07;14.23;;;19.70;34.80;;;;;;2614496;54;20398;-79
2023/07/12 20:32:15;;;;;;;16.60;15.47;;;19.50;47.00;;;;;;2616081;54;20146;-80
2023/07/12 20:38:05;;;;;;;14.90;14.00;;;19.50;51.90;;;;;;2615567;54;20376;-80
2023/07/12 20:43:55;;;;;;;15.60;14.67;;;19.30;65.60;;;;;;2615536;54;20422;-80
2023/07/12 20:49:47;;;;;;;15.47;14.57;;;19.30;71.20;;;;;;2613061;54;20384;-80
2023/07/12 20:55:36;;;;;;;16.93;15.63;;;18.90;86.30;;;;;;2614437;54;20897;-80
2023/07/12 21:05:20;;;;;;;16.40;15.20;;;18.70;99.90;;;;;;2615047;39;20916;-80
2023/07/12 21:11:08;;;;;;;15.10;13.87;;;18.40;99.90;;;;;;2615403;54;20399;-80
2023/07/12 21:16:57;;;;;;;15.47;14.13;;;18.40;99.90;;;;;;2614527;46;20165;-75
2023/07/12 21:22:44;;;;;;;14.80;13.73;;;18.20;99.90;;;;;;2614793;54;20420;-82
2023/07/12 21:28:34;;;;;;;13.40;12.77;;;17.90;99.90;;;;;;2615914;39;20561;-81
2023/07/12 21:34:22;;;;;;;14.43;13.60;;;17.80;99.90;;;;;;2616125;54;20371;-83
2023/07/12 21:40:10;;;;;;;13.77;12.97;;;17.60;99.90;;;;;;2617043;54;20211;-82
2023/07/12 21:45:58;;;;;;;13.97;13.27;;;17.50;99.90;;;;;;2616139;54;20931;-82
2023/07/12 21:51:46;;;;;;;13.17;12.47;;;17.40;99.90;;;;;;2616124;54;20171;-83
2023/07/12 21:57:35;;;;;;;13.87;12.67;;;17.40;99.90;;;;;;2615535;46;20175;-83
2023/07/12 22:00:47;;;;;;;14.43;13.30;;;17.30;99.90;;;;;;2616101;54;20412;-83
2023/07/12 22:03:14;;;;;;;12.10;11.40;;;17.30;99.90;;;;;;2613472;54;20427;-83
2023/07/12 22:09:07;;;;;;;12.70;11.83;;;17.50;99.90;;;;;;2614825;54;20407;-82
2023/07/12 22:14:55;;;;;;;12.10;11.33;;;17.30;99.90;;;;;;2615515;54;20969;-82
2023/07/12 22:20:43;;;;;;;12.67;12.07;;;17.80;99.90;;;;;;2613579;54;20670;-78
2023/07/12 22:26:31;;;;;;;17.77;12.57;;;18.20;99.90;;;;;;2615211;54;20936;-78
2023/07/12 22:32:19;;;;;;;12.77;12.03;;;18.10;99.90;;;;;;2613921;39;20557;-79
2023/07/12 22:38:07;;;;;;;12.97;11.97;;;18.20;99.90;;;;;;2613073;54;20275;-79
2023/07/12 22:43:55;;;;;;;13.30;12.40;;;18.20;99.90;;;;;;2614423;54;20771;-79
2023/07/12 22:49:42;;;;;;;12.57;11.97;;;18.30;99.90;;;;;;2615129;54;20150;-78
2023/07/12 22:55:31;;;;;;;11.90;11.20;;;18.30;99.90;;;;;;2613422;54;20262;-78
2023/07/12 22:58:15;;;;;;;13.60;12.83;;;18.20;94.40;;;;;;2614705;51;20399;-78
2023/07/12 23:00:41;;;;;;;14.00;12.97;;;18.20;87.00;;;;;;2614569;46;20424;-78
2023/07/12 23:06:29;;;;;;;13.03;12.40;;;18.20;60.30;;;;;;2614290;54;20150;-78
2023/07/12 23:12:16;;;;;;;12.33;11.73;;;18.00;58.60;;;;;;2614725;54;20168;-79
2023/07/12 23:18:04;;;;;;;14.67;13.47;;;17.90;56.50;;;;;;2616995;31;20651;-80
2023/07/12 23:23:53;;;;;;;14.03;13.23;;;17.90;56.70;;;;;;2616017;54;20151;-75
2023/07/12 23:29:41;;;;;;;12.67;11.97;;;17.80;57.50;;;;;;2615310;54;20954;-75
2023/07/12 23:35:29;;;;;;;13.40;12.70;;;17.70;65.70;;;;;;2617645;54;20122;-80
2023/07/12 23:41:17;;;;;;;13.23;12.53;;;17.60;75.00;;;;;;2616448;54;20456;-79
2023/07/12 23:47:05;;;;;;;14.03;13.23;;;17.60;70.80;;;;;;2617403;54;20146;-79
2023/07/12 23:52:53;;;;;;;13.83;13.10;;;17.50;75.30;;;;;;2616156;54;20496;-80
2023/07/12 23:58:42;;;;;;;13.60;12.87;;;17.40;90.30;;;;;;2617061;54;20130;-80
